AirNav   Air Wisconsin Up To $57,000 Bonus
 
 1098 users online  

0MI8 Oakwood Southshore Medical Center Heliport
Trenton, Michigan, USA

GOING TO TRENTON?


FAA INFORMATION EFFECTIVE 07 NOVEMBER 2019

Location

FAA Identifier: 0MI8
Lat/Long: 42-06-57.5100N 083-12-52.8100W
42-06.958500N 083-12.880167W
42.1159750,-83.2146694
(estimated)
Elevation: 589 ft. / 180 m (estimated)
From city: 3 miles NE of TRENTON, MI
Time zone: UTC -5 (UTC -4 during Daylight Saving Time)
Zip code: 48183

Heliport Operations

Heliport use: Private use. Permission required prior to landing
Activation date: 10/2016
Control tower: no
ARTCC: CLEVELAND CENTER
FSS: LANSING FLIGHT SERVICE STATION
Attendance: 
Segmented circle: no

Heliport Communications

WX AWOS-3 at ONZ (2.6 nm SE): 119.675 (734-692-9686)
WX ASOS at DTW (8 nm NW): PHONE 734-955-5015
WX AWOS-3 at TTF (14 nm SW): 119.075 (734-384-0259)
WX ASOS at YIP (16 nm NW): PHONE 734-961-6843
WX ASOS at DET (20 nm NE): PHONE 313-371-9696

Nearby radio navigation aids

VOR radial/distance  VOR name  Freq  Var
DXOr137/8.9DETROIT VOR/DME113.4006W
CRLr072/11.6CARLETON VOR/DME115.7003W
YQGr251/18.9WINDSOR VOR/DME113.8006W
SVMr139/24.3SALEM VORTAC114.3003W

 
NDB name  Hdg/Dist  Freq  Var  ID
GROSSE ILE295/2.941907WRYS .-. -.-- ...
TECUMSEH087/30.323906WTCU - -.-. ..-
PORT CLINTON344/39.042307WPCW .--. -.-. .--

Heliport Services

Runway Information

Helipad H1

Dimensions: 48 x 48 ft. / 15 x 15 m
Surface: concrete
Traffic pattern: leftleft

Heliport Ownership and Management from official FAA records

Ownership: Privately-owned
Owner: OAKWOOD SOUTHSHORE MEDICAL CENTER
5450 FORT ST.
TRENTON, MI 48183
Phone 784-671-3817
Manager: MATT GEORGE
5450 FORT ST.
TRENTON, MI 48183
Phone 734-6713817

Additional Remarks

FOR CD CTC CLEVELAND ARTCC AT 440-774-0490.

Instrument Procedures

There are no published instrument procedures at 0MI8.

Some nearby airports with instrument procedures:

KONZ - Grosse Ile Municipal Airport (3 nm SE)
KDTW - Detroit Metropolitan Wayne County Airport (8 nm NW)
KTTF - Custer Airport (14 nm SW)
KYIP - Willow Run Airport (16 nm NW)
1D2 - Canton-Plymouth-Mettetal Airport (18 nm NW)
KDET - Coleman A Young Municipal Airport (20 nm NE)
 
Loc | Ops | Rwys | IFR | FBO | Links
Com | Nav | Svcs | Stats | Notes
Aerial photo
No photo
 
Airport distance calculator
Flying to Oakwood Southshore Medical Center Heliport? Find the distance to fly.

From to 0MI8

Sunrise and sunset
Times for 21-Nov-2019
 Local
(UTC-5)
 Zulu
(UTC)
Morning civil twilight07:0112:01
Sunrise07:3112:31
Sunset17:0622:06
Evening civil twilight17:3722:37

Current date and time
Zulu (UTC)  22-Nov-2019 00:27:56
Local (UTC-5)  21-Nov-2019 19:27:56
 
METAR
KONZ 
3nm E 
220016Z AUTO 22012G20KT 5SM -RA OVC011 11/10 A2972 RMK AO2 T01070098
KDTW 
9nm NW 
212353Z 21019G29KT 4SM -RA BR OVC010 11/09 A2971 RMK AO2 PK WND 23030/2302 RAB01 SLP063 P0001 60003 T01110094 10111 20067 55006 $
KTTF 
14nm SW 
220016Z AUTO 22017G24KT 7SM OVC011 12/10 A2973 RMK AO2 T01150095
CXHA 
15nm E 
220000Z AUTO 22013G20KT 09/08 RMK AO1 5001 PK WND 21023/2334 SLP076 T00920083 50006
CYQG 
15nm NE 
220024Z AUTO 21014G20KT 4SM -RA BR BKN009 OVC014 10/09 A2970 RMK SLP063
KYIP 
16nm NW 
212353Z 22017KT 5SM -RA BR OVC007 12/09 A2970 RMK AO2 PK WND 21027/2301 CIG 006V012 SLP058 P0001 60006 T01170094 10117 20078 55005
KDET 
19nm NE 
212353Z 23018G30KT 6SM -RA BR OVC011 11/11 A2969 RMK AO2 PK WND 23030/2353 RAB21 SLP058 P0000 60004 T01110106 10111 20072 56011
TAF
KDTW 
9nm NW 
212043Z 2121/2224 20018G27KT 5SM -SHRA BKN012 OVC020 FM212200 22020G30KT 5SM -DZ OVC008 FM220300 28018G28KT P6SM OVC020 FM220800 30014G24KT P6SM OVC028 FM221400 31012G18KT P6SM BKN035
CYQG 
15nm NE 
212253Z 2122/2218 21017G27KT 6SM BR SCT008 OVC015 TEMPO 2122/2203 4SM -RA -DZ BR BKN008 OVC015 FM220300 24018G28KT 6SM -SHRA BR OVC020 TEMPO 2203/2212 P6SM NSW OVC025 BECMG 2204/2206 30015G25KT FM221200 30012G22KT P6SM BKN025 RMK FCST BASED ON AUTO OBS. NXT FCST BY 220000Z
KYIP 
16nm NW 
212044Z 2121/2218 20018G30KT 6SM -SHRA BKN012 OVC020 FM212200 22021G32KT 5SM -DZ OVC008 FM220300 28018G28KT P6SM OVC020 FM220800 30014G24KT P6SM OVC028 FM221400 31012G18KT P6SM BKN035
KDET 
19nm NE 
211725Z 2118/2218 19014G22KT 5SM SHRA BKN040 OVC060 FM212000 20018G27KT 6SM -SHRA BKN022 OVC040 FM212300 23020G30KT P6SM OVC012 FM220300 28018G28KT P6SM OVC020 FM220800 30014G24KT P6SM OVC028 FM221400 31012G18KT P6SM BKN035
NOTAMs
Click for the latest NOTAMs
NOTAMs are issued by the DoD/FAA and will open in a separate window not controlled by AirNav.

 

 
 

Would you like to see your business listed on this page?

 If your business provides an interesting product or service to pilots, flight crews, aircraft, or users of the Oakwood Southshore Medical Center Heliport, you should consider listing it here.  To start the listing process, click on the button below
 
Add a business
 

Other Pages about Oakwood Southshore Medical Center Heliport

Update a link
 
Copyright © AirNav, LLC. All rights reserved. Privacy Policy  Contact